Time;durP1;ratioP1;P1;durP2;ratioP2;P2;SDS_P1;SDS_P2;PMS_P1;PMS_P2;Temp;Humidity;BMP_temperature;BMP_pressure;BME280_temperature;BME280_humidity;BME280_pressure;Samples;Min_cycle;Max_cycle;Signal;HPM_P1;HPM_P2
2023/02/14 00:02:06;;;;;;;2.85;1.58;;;3.90;99.90;;;;;;5066657;28;20132;-66
2023/02/14 00:04:33;;;;;;;7.25;2.03;;;3.90;99.90;;;;;;5069231;28;20072;-64
2023/02/14 00:07:00;;;;;;;2.67;1.77;;;3.90;99.90;;;;;;5066246;28;20052;-66
2023/02/14 00:09:27;;;;;;;2.65;1.13;;;3.90;99.90;;;;;;5067062;28;20055;-63
2023/02/14 00:11:54;;;;;;;1.38;1.10;;;3.90;99.90;;;;;;5067478;28;20063;-64
2023/02/14 00:17:26;;;;;;;2.50;1.40;;;3.90;99.90;;;;;;4999771;28;20137;-64
2023/02/14 00:19:53;;;;;;;2.92;1.23;;;3.90;99.90;;;;;;5002343;28;20065;-64
2023/02/14 00:22:20;;;;;;;0.98;0.93;;;3.90;99.90;;;;;;5027368;28;20040;-65
2023/02/14 00:24:47;;;;;;;3.80;1.27;;;4.00;99.90;;;;;;5066717;28;20422;-63
2023/02/14 00:27:13;;;;;;;1.42;1.13;;;3.90;99.90;;;;;;5067886;28;20076;-64
2023/02/14 00:29:40;;;;;;;2.65;1.40;;;4.00;99.90;;;;;;5067788;28;20050;-65
2023/02/14 00:32:07;;;;;;;4.47;1.10;;;4.00;99.90;;;;;;5063887;28;20564;-64
2023/02/14 00:34:35;;;;;;;1.98;1.20;;;3.90;99.90;;;;;;5067387;28;20049;-65
2023/02/14 00:37:03;;;;;;;3.25;1.92;;;3.80;99.90;;;;;;5067853;28;20041;-63
2023/02/14 00:39:30;;;;;;;1.83;1.23;;;3.70;99.90;;;;;;5059673;28;20567;-65
2023/02/14 00:41:56;;;;;;;2.28;1.00;;;3.60;99.90;;;;;;5063913;28;20500;-64
2023/02/14 00:44:23;;;;;;;2.80;1.58;;;3.50;99.90;;;;;;5067048;28;20045;-64
2023/02/14 00:46:51;;;;;;;2.53;1.25;;;3.50;99.90;;;;;;5067420;28;20040;-68
2023/02/14 00:49:17;;;;;;;5.35;1.73;;;3.40;99.90;;;;;;5056806;28;20485;-68
2023/02/14 00:51:44;;;;;;;5.75;1.38;;;3.40;99.90;;;;;;5068355;28;20137;-65
2023/02/14 00:54:11;;;;;;;4.28;2.70;;;3.40;99.90;;;;;;5063463;28;20616;-66
2023/02/14 00:56:38;;;;;;;3.17;1.38;;;3.40;99.90;;;;;;5067926;28;20054;-66
2023/02/14 00:59:08;;;;;;;4.80;1.25;;;3.30;99.90;;;;;;5067980;28;20045;-63
2023/02/14 01:01:35;;;;;;;3.00;1.13;;;3.30;99.90;;;;;;5065357;28;20610;-68
2023/02/14 01:04:02;;;;;;;1.80;1.00;;;3.20;99.90;;;;;;5062521;28;20079;-66
2023/02/14 01:06:29;;;;;;;3.47;1.13;;;3.20;99.90;;;;;;5062375;28;20040;-67
2023/02/14 01:08:56;;;;;;;2.97;1.20;;;3.20;99.90;;;;;;5067291;28;20051;-64
2023/02/14 01:11:24;;;;;;;2.90;1.30;;;3.10;99.90;;;;;;5066074;28;20087;-65
2023/02/14 01:13:54;;;;;;;3.08;1.27;;;3.10;99.90;;;;;;5067914;28;20053;-64
2023/02/14 01:16:23;;;;;;;4.03;1.85;;;3.20;99.90;;;;;;5066105;28;20052;-66
2023/02/14 01:18:50;;;;;;;2.08;1.10;;;3.20;99.90;;;;;;5060362;28;20505;-66
2023/02/14 01:21:23;;;;;;;2.03;1.55;;;3.30;99.90;;;;;;5066697;28;20040;-64
2023/02/14 01:23:53;;;;;;;1.85;1.30;;;3.40;99.90;;;;;;5067395;28;20047;-64
2023/02/14 01:26:21;;;;;;;5.85;2.40;;;3.40;99.90;;;;;;5063558;28;20059;-64
2023/02/14 01:28:49;;;;;;;1.48;1.38;;;3.40;99.90;;;;;;5067266;28;20058;-65
2023/02/14 01:31:20;;;;;;;5.50;1.92;;;3.40;99.90;;;;;;5066116;28;20131;-63
2023/02/14 01:33:49;;;;;;;3.08;1.40;;;3.40;99.90;;;;;;5063066;28;20847;-66
2023/02/14 01:36:19;;;;;;;3.35;1.20;;;3.30;99.90;;;;;;5055881;28;20045;-64
2023/02/14 01:38:49;;;;;;;8.35;1.33;;;3.30;99.90;;;;;;5064225;28;20474;-65
2023/02/14 01:41:16;;;;;;;2.15;1.33;;;3.30;99.90;;;;;;5067372;28;20048;-64
2023/02/14 01:43:53;;;;;;;2.08;1.65;;;3.30;99.90;;;;;;5062091;28;20048;-63
2023/02/14 01:46:23;;;;;;;1.67;1.15;;;3.30;99.90;;;;;;5062777;28;20094;-65
2023/02/14 01:48:52;;;;;;;2.63;1.00;;;3.20;99.90;;;;;;5065405;28;20110;-64
2023/02/14 01:51:20;;;;;;;4.32;1.90;;;3.10;99.90;;;;;;5063083;28;20047;-64
2023/02/14 01:53:50;;;;;;;4.65;1.90;;;3.00;99.90;;;;;;5062279;28;20510;-63
2023/02/14 01:56:24;;;;;;;7.72;1.95;;;2.90;99.90;;;;;;5061000;28;20063;-64
2023/02/14 01:58:54;;;;;;;1.98;1.30;;;3.00;99.90;;;;;;5064354;28;20134;-66
2023/02/14 02:01:22;;;;;;;;;;;3.30;99.90;;;;;;5061953;28;20128;-69
2023/02/14 02:03:59;;;;;;;2.35;1.23;;;3.30;99.90;;;;;;5063981;28;19920;-64
2023/02/14 02:06:33;;;;;;;2.92;1.40;;;3.40;99.90;;;;;;5061830;28;20072;-63
2023/02/14 02:09:09;;;;;;;4.80;1.90;;;3.50;99.90;;;;;;5064680;28;20790;-69
2023/02/14 02:11:36;;;;;;;4.95;1.70;;;3.50;99.90;;;;;;5064641;28;20482;-64
2023/02/14 02:14:04;;;;;;;4.20;1.70;;;3.50;99.90;;;;;;5062080;28;20135;-63
2023/02/14 02:17:06;;;;;;;4.53;1.52;;;3.50;99.90;;;;;;5063060;28;20371;-65
2023/02/14 02:19:58;;;;;;;3.05;1.42;;;3.40;99.90;;;;;;5062265;28;20095;-64
2023/02/14 02:22:46;;;;;;;5.25;1.65;;;3.40;99.90;;;;;;5061799;28;20056;-65
2023/02/14 02:25:33;;;;;;;4.15;1.92;;;3.40;99.90;;;;;;5063358;28;20375;-65
2023/02/14 02:28:15;;;;;;;2.58;1.35;;;3.30;99.90;;;;;;5058332;28;20130;-64
2023/02/14 02:30:45;;;;;;;2.50;1.20;;;3.30;99.90;;;;;;5063813;28;20037;-64
2023/02/14 02:33:51;;;;;;;2.15;1.33;;;3.30;99.90;;;;;;5061874;28;20378;-64
2023/02/14 02:36:36;;;;;;;3.83;0.95;;;3.40;99.90;;;;;;5077268;28;20128;-63
2023/02/14 02:39:16;;;;;;;3.25;1.33;;;3.40;99.90;;;;;;5068889;28;20076;-64
2023/02/14 02:41:58;;;;;;;3.72;1.52;;;3.40;99.90;;;;;;5067320;28;20084;-66
2023/02/14 02:44:29;;;;;;;3.28;1.20;;;3.40;99.90;;;;;;5075231;28;20053;-63
2023/02/14 02:47:10;;;;;;;2.67;1.35;;;3.40;99.90;;;;;;5058862;28;20127;-66
2023/02/14 02:53:04;;;;;;;4.65;1.40;;;3.40;99.90;;;;;;5075318;28;20374;-66
2023/02/14 02:58:47;;;;;;;4.20;1.25;;;3.60;99.90;;;;;;5060837;28;20047;-66
2023/02/14 03:01:19;;;;;;;4.03;1.98;;;3.70;99.90;;;;;;5062153;28;20084;-63
2023/02/14 03:06:38;;;;;;;5.40;1.48;;;3.70;99.90;;;;;;5058051;28;20132;-64
2023/02/14 03:09:32;;;;;;;3.67;1.35;;;3.70;99.90;;;;;;5062494;28;20040;-66
2023/02/14 03:12:20;;;;;;;2.92;1.10;;;3.60;99.90;;;;;;5056825;28;20054;-64
2023/02/14 03:15:08;;;;;;;1.77;0.88;;;3.60;99.90;;;;;;5054777;28;20658;-66
2023/02/14 03:17:47;;;;;;;4.25;1.52;;;3.60;99.90;;;;;;5060725;28;20191;-66
2023/02/14 03:20:35;;;;;;;1.70;1.25;;;3.60;99.90;;;;;;5061828;28;20697;-65
2023/02/14 03:23:07;;;;;;;3.40;1.77;;;3.60;99.90;;;;;;5058388;28;20079;-66
2023/02/14 03:25:55;;;;;;;4.93;2.78;;;3.60;99.90;;;;;;5062910;28;20539;-64
2023/02/14 03:28:52;;;;;;;2.25;1.48;;;3.60;99.90;;;;;;5057740;28;20151;-63
2023/02/14 03:31:29;;;;;;;2.25;1.15;;;3.60;99.90;;;;;;5064649;28;20117;-66
2023/02/14 03:33:57;;;;;;;1.42;1.33;;;3.50;99.90;;;;;;5059244;28;20071;-64
2023/02/14 03:36:36;;;;;;;2.53;1.30;;;3.50;99.90;;;;;;5061101;28;20060;-66
2023/02/14 03:39:14;;;;;;;3.38;1.63;;;3.50;99.90;;;;;;5055585;28;20052;-67
2023/02/14 03:41:49;;;;;;;4.05;1.65;;;3.50;99.90;;;;;;5065428;28;20075;-69
2023/02/14 03:44:24;;;;;;;2.72;1.02;;;3.50;99.90;;;;;;5059856;28;20044;-64
2023/02/14 03:46:56;;;;;;;2.97;1.67;;;3.50;99.90;;;;;;5063228;28;20048;-63
2023/02/14 03:49:28;;;;;;;3.35;1.30;;;3.50;99.90;;;;;;5061521;28;20044;-65
2023/02/14 03:51:59;;;;;;;10.25;1.35;;;3.40;99.90;;;;;;5062553;28;20055;-65
2023/02/14 03:54:27;;;;;;;3.60;1.45;;;3.40;99.90;;;;;;5058130;28;20048;-64
2023/02/14 03:57:18;;;;;;;8.88;1.65;;;3.30;99.90;;;;;;5062770;28;20378;-64
2023/02/14 03:59:46;;;;;;;1.95;1.08;;;3.30;99.90;;;;;;5062838;28;20055;-65
2023/02/14 04:02:33;;;;;;;3.08;1.13;;;3.30;99.90;;;;;;5062539;28;20048;-68
2023/02/14 04:05:02;;;;;;;2.25;1.95;;;3.30;99.90;;;;;;5061463;28;20059;-64
2023/02/14 04:07:29;;;;;;;3.83;1.33;;;3.20;99.90;;;;;;5063763;28;20052;-66
2023/02/14 04:09:56;;;;;;;3.42;1.83;;;3.20;99.90;;;;;;5062595;28;20047;-64
2023/02/14 04:12:23;;;;;;;2.30;1.33;;;3.20;99.90;;;;;;5064459;28;20052;-66
2023/02/14 04:15:03;;;;;;;2.58;1.00;;;3.20;99.90;;;;;;5061490;28;20125;-67
2023/02/14 04:20:16;;;;;;;6.18;1.75;;;3.20;99.90;;;;;;5062390;28;20041;-64
2023/02/14 04:22:45;;;;;;;5.63;2.33;;;3.10;99.90;;;;;;5062277;28;20072;-64
2023/02/14 04:25:12;;;;;;;2.10;1.30;;;3.10;99.90;;;;;;5062967;28;20045;-64
2023/02/14 04:27:39;;;;;;;3.33;1.60;;;3.10;99.90;;;;;;5061901;28;20041;-65
2023/02/14 04:30:07;;;;;;;2.40;1.00;;;3.00;99.90;;;;;;5063139;28;20052;-65
2023/02/14 04:32:34;;;;;;;2.85;1.23;;;3.00;99.90;;;;;;5068699;28;20830;-63
2023/02/14 04:35:01;;;;;;;4.70;1.70;;;2.80;99.90;;;;;;5068536;28;20539;-68
2023/02/14 04:37:28;;;;;;;3.97;1.45;;;2.70;99.90;;;;;;5066927;28;20078;-64
2023/02/14 04:39:55;;;;;;;2.25;1.58;;;2.60;99.90;;;;;;5063276;28;20056;-67
2023/02/14 04:42:22;;;;;;;5.40;1.85;;;2.60;99.90;;;;;;5065203;28;20056;-64
2023/02/14 04:44:49;;;;;;;2.05;0.90;;;2.70;99.90;;;;;;5067720;28;20048;-65
2023/02/14 04:47:16;;;;;;;3.13;2.08;;;2.70;99.90;;;;;;5065599;28;20535;-64
2023/02/14 04:49:43;;;;;;;2.78;1.77;;;2.70;99.90;;;;;;5066937;28;20055;-63
2023/02/14 04:52:09;;;;;;;2.38;1.27;;;2.60;99.90;;;;;;5066652;28;20422;-64
2023/02/14 04:54:36;;;;;;;6.25;1.63;;;2.60;99.90;;;;;;5067101;28;20447;-64
2023/02/14 04:57:03;;;;;;;6.28;2.00;;;2.60;99.90;;;;;;5065288;28;20044;-65
2023/02/14 04:59:30;;;;;;;5.22;1.60;;;2.60;99.90;;;;;;5066407;28;20040;-66
2023/02/14 05:01:57;;;;;;;2.40;1.42;;;2.70;99.90;;;;;;5065118;28;20048;-67
2023/02/14 05:04:24;;;;;;;2.50;1.42;;;2.80;99.90;;;;;;5066337;28;20456;-65
2023/02/14 05:06:50;;;;;;;4.22;1.90;;;2.80;99.90;;;;;;5066143;28;20048;-65
2023/02/14 05:09:17;;;;;;;1.52;1.40;;;2.70;99.90;;;;;;5065979;28;20063;-67
2023/02/14 05:11:44;;;;;;;3.05;1.60;;;2.70;99.90;;;;;;5065678;28;20053;-66
2023/02/14 05:14:12;;;;;;;3.17;1.38;;;2.70;99.90;;;;;;5062591;28;20052;-64
2023/02/14 05:16:39;;;;;;;3.80;1.90;;;2.60;99.90;;;;;;5066967;28;20060;-64
2023/02/14 05:19:06;;;;;;;2.88;1.40;;;2.60;99.90;;;;;;5060792;28;20137;-64
2023/02/14 05:21:33;;;;;;;3.05;1.90;;;2.60;99.90;;;;;;5066638;28;20134;-68
2023/02/14 05:24:00;;;;;;;2.35;2.10;;;2.50;99.90;;;;;;5063763;28;20616;-65
2023/02/14 05:26:27;;;;;;;3.03;1.38;;;2.50;99.90;;;;;;5081044;28;20460;-65
2023/02/14 05:28:54;;;;;;;5.40;1.52;;;2.50;99.90;;;;;;5065768;28;20170;-64
2023/02/14 05:31:22;;;;;;;3.25;1.90;;;2.50;99.90;;;;;;5065081;28;20055;-63
2023/02/14 05:33:49;;;;;;;3.80;2.17;;;2.40;99.90;;;;;;5065750;28;20356;-69
2023/02/14 05:36:16;;;;;;;3.38;1.55;;;2.40;99.90;;;;;;5063905;28;20534;-66
2023/02/14 05:38:43;;;;;;;4.90;2.22;;;2.30;99.90;;;;;;5063878;28;20036;-64
2023/02/14 05:41:09;;;;;;;4.20;2.47;;;2.40;99.90;;;;;;5066511;28;20047;-63
2023/02/14 05:43:36;;;;;;;4.78;2.10;;;2.40;99.90;;;;;;5065846;28;20478;-69
2023/02/14 05:46:03;;;;;;;4.60;1.40;;;2.50;99.90;;;;;;5063884;28;20483;-64
2023/02/14 05:48:30;;;;;;;11.38;2.60;;;2.50;99.90;;;;;;5066231;28;20054;-63
2023/02/14 05:51:03;;;;;;;3.25;2.30;;;2.60;99.90;;;;;;5065543;28;20124;-67
2023/02/14 05:53:30;;;;;;;2.15;1.95;;;2.60;99.90;;;;;;5065154;28;20469;-64
2023/02/14 05:55:56;;;;;;;4.03;2.22;;;2.50;99.90;;;;;;5061613;28;20074;-65
2023/02/14 05:58:23;;;;;;;3.40;2.03;;;2.40;99.90;;;;;;5065533;28;20050;-66
2023/02/14 06:00:50;;;;;;;3.22;2.00;;;2.30;99.90;;;;;;5066389;28;20062;-64
2023/02/14 06:03:17;;;;;;;5.18;2.10;;;2.10;99.90;;;;;;5065889;28;20143;-64
2023/02/14 06:05:44;;;;;;;1.92;1.42;;;2.10;99.90;;;;;;5066234;28;20144;-68
2023/02/14 06:08:11;;;;;;;6.63;2.13;;;2.00;99.90;;;;;;5062730;28;20051;-64
2023/02/14 06:10:38;;;;;;;3.15;1.80;;;2.00;99.90;;;;;;5066508;28;20044;-66
2023/02/14 06:13:07;;;;;;;5.68;2.13;;;2.00;99.90;;;;;;5065519;28;20143;-66
2023/02/14 06:15:35;;;;;;;2.90;2.17;;;2.00;99.90;;;;;;5064281;28;20402;-67
2023/02/14 06:18:02;;;;;;;3.33;2.28;;;2.00;99.90;;;;;;5061459;28;20079;-65
2023/02/14 06:20:30;;;;;;;4.03;3.08;;;1.90;99.90;;;;;;5065363;28;20367;-65
2023/02/14 06:22:57;;;;;;;2.05;1.65;;;1.90;99.90;;;;;;5061839;28;20056;-65
2023/02/14 06:25:24;;;;;;;10.38;3.08;;;1.80;99.90;;;;;;5063104;28;20155;-64
2023/02/14 06:27:55;;;;;;;8.25;3.35;;;1.60;99.90;;;;;;5064511;28;20579;-64
2023/02/14 06:30:23;;;;;;;4.95;3.47;;;1.50;99.90;;;;;;5064216;28;20052;-65
2023/02/14 06:32:50;;;;;;;4.28;3.80;;;1.40;99.90;;;;;;5062690;28;20053;-63
2023/02/14 06:35:17;;;;;;;10.93;5.43;;;1.40;99.90;;;;;;5062476;28;20049;-64
2023/02/14 06:37:44;;;;;;;7.72;4.72;;;1.30;99.90;;;;;;5062178;28;20053;-67
2023/02/14 06:40:11;;;;;;;8.13;4.82;;;1.30;99.90;;;;;;5057661;28;20098;-66
2023/02/14 06:42:38;;;;;;;6.85;5.68;;;1.20;99.90;;;;;;5063723;28;20064;-66
2023/02/14 06:45:06;;;;;;;10.90;7.50;;;1.10;99.90;;;;;;5063380;28;20557;-64
2023/02/14 06:47:33;;;;;;;12.27;6.55;;;1.10;99.90;;;;;;5062162;28;20127;-63
2023/02/14 06:50:03;;;;;;;7.85;7.15;;;1.10;99.90;;;;;;5061880;28;20986;-63
2023/02/14 06:52:31;;;;;;;7.63;5.60;;;1.10;99.90;;;;;;5059275;28;20051;-66
2023/02/14 06:54:58;;;;;;;9.30;5.70;;;1.10;99.90;;;;;;5055758;28;20909;-65
2023/02/14 06:57:25;;;;;;;7.53;5.47;;;1.10;99.90;;;;;;5062914;28;20041;-64
2023/02/14 06:59:52;;;;;;;5.40;4.38;;;1.20;99.90;;;;;;5060609;28;20102;-68
2023/02/14 07:02:19;;;;;;;8.00;4.57;;;1.20;99.90;;;;;;5058827;28;20046;-63
2023/02/14 07:04:49;;;;;;;6.97;5.78;;;1.40;99.90;;;;;;5064359;28;20036;-63
2023/02/14 07:07:16;;;;;;;8.77;7.82;;;1.40;99.90;;;;;;5065764;28;20043;-63
2023/02/14 07:09:42;;;;;;;15.68;8.50;;;1.40;99.90;;;;;;5058776;28;20043;-66
2023/02/14 07:12:09;;;;;;;13.55;6.47;;;1.40;99.90;;;;;;5063413;28;20397;-66
2023/02/14 07:14:36;;;;;;;8.00;4.45;;;1.40;99.90;;;;;;5062841;28;20063;-66
2023/02/14 07:17:03;;;;;;;3.92;3.33;;;1.40;99.90;;;;;;5065393;28;20046;-66
2023/02/14 07:19:30;;;;;;;7.03;3.25;;;1.50;99.90;;;;;;5064687;28;20092;-64
2023/02/14 07:21:57;;;;;;;4.15;2.95;;;1.60;99.90;;;;;;5063161;28;20052;-64
2023/02/14 07:24:24;;;;;;;6.45;3.63;;;1.70;99.90;;;;;;5063669;28;20157;-64
2023/02/14 07:26:50;;;;;;;7.05;2.15;;;1.80;99.90;;;;;;5061791;28;20048;-65
2023/02/14 07:29:17;;;;;;;5.45;2.63;;;1.90;99.90;;;;;;5063200;28;20135;-64
2023/02/14 07:31:44;;;;;;;6.22;2.45;;;1.90;99.90;;;;;;5065345;28;20066;-66
2023/02/14 07:34:11;;;;;;;2.90;2.00;;;2.00;99.90;;;;;;5060561;28;20052;-64
2023/02/14 07:36:38;;;;;;;4.30;2.55;;;2.10;99.90;;;;;;5064206;28;20374;-63
2023/02/14 07:39:05;;;;;;;4.78;2.72;;;2.10;99.90;;;;;;5063792;28;20055;-67
2023/02/14 07:41:32;;;;;;;3.22;2.08;;;2.10;99.90;;;;;;5062711;28;20581;-69
2023/02/14 07:43:59;;;;;;;3.55;1.92;;;2.20;99.90;;;;;;5062733;28;20145;-63
2023/02/14 07:46:26;;;;;;;5.10;2.28;;;2.30;99.90;;;;;;5064497;28;20052;-65
2023/02/14 07:48:53;;;;;;;5.38;1.75;;;2.30;99.90;;;;;;5061871;28;20058;-63
2023/02/14 07:51:20;;;;;;;5.40;1.83;;;2.40;99.90;;;;;;5063220;28;20049;-65
2023/02/14 07:53:47;;;;;;;3.10;2.00;;;2.50;99.90;;;;;;5062260;28;20400;-67
2023/02/14 07:56:14;;;;;;;5.22;2.40;;;2.50;99.90;;;;;;5055517;28;20044;-63
2023/02/14 07:58:41;;;;;;;3.13;1.58;;;2.50;99.90;;;;;;5057256;28;20048;-64
2023/02/14 08:01:07;;;;;;;3.85;1.80;;;2.50;99.90;;;;;;5062925;28;21263;-63
2023/02/14 08:03:34;;;;;;;3.05;1.75;;;2.60;99.90;;;;;;5063161;28;20512;-63
2023/02/14 08:06:02;;;;;;;4.82;1.88;;;2.70;99.90;;;;;;5046044;28;20060;-64
2023/02/14 08:08:31;;;;;;;4.88;2.55;;;2.70;99.90;;;;;;5067368;28;20453;-66
2023/02/14 08:10:58;;;;;;;4.00;1.65;;;2.70;99.90;;;;;;5065692;28;20675;-66
2023/02/14 08:13:26;;;;;;;2.95;1.60;;;2.80;99.90;;;;;;5066274;28;20151;-69
2023/02/14 08:16:04;;;;;;;5.78;2.33;;;2.90;99.90;;;;;;5062777;28;20041;-63
2023/02/14 08:18:34;;;;;;;4.32;2.10;;;2.90;99.90;;;;;;5064513;28;20128;-64
2023/02/14 08:21:01;;;;;;;3.00;1.85;;;2.90;99.90;;;;;;5064275;28;20051;-65
2023/02/14 08:23:28;;;;;;;3.88;2.03;;;3.00;99.90;;;;;;5067521;28;20078;-65
2023/02/14 08:25:56;;;;;;;9.43;2.35;;;3.00;99.90;;;;;;5066172;28;20482;-63
2023/02/14 08:28:23;;;;;;;9.25;2.65;;;3.10;99.90;;;;;;5067262;28;20048;-67
2023/02/14 08:30:50;;;;;;;4.28;2.15;;;3.10;99.90;;;;;;5066311;28;20541;-63
2023/02/14 08:33:18;;;;;;;5.50;1.65;;;3.10;99.90;;;;;;5067541;28;20032;-64
2023/02/14 08:35:45;;;;;;;2.17;1.90;;;3.20;99.90;;;;;;5063065;28;20048;-64
2023/02/14 08:38:12;;;;;;;7.10;2.08;;;3.20;99.90;;;;;;5064851;28;20167;-64
2023/02/14 08:40:38;;;;;;;2.47;1.58;;;3.20;99.90;;;;;;5065639;28;20639;-64
2023/02/14 08:43:06;;;;;;;6.30;2.60;;;3.30;99.90;;;;;;5065129;28;20546;-66
2023/02/14 08:45:33;;;;;;;2.03;1.00;;;3.30;99.90;;;;;;5064796;28;20049;-64
2023/02/14 08:48:05;;;;;;;5.70;2.00;;;3.40;99.90;;;;;;5064170;28;20079;-69
2023/02/14 08:50:33;;;;;;;5.15;1.80;;;3.40;99.90;;;;;;5066110;28;20047;-64
2023/02/14 08:53:00;;;;;;;5.72;1.48;;;3.50;99.90;;;;;;5064752;28;20048;-64
2023/02/14 08:55:27;;;;;;;5.53;1.77;;;3.60;99.90;;;;;;5067352;28;20131;-63
2023/02/14 08:57:56;;;;;;;2.60;1.83;;;3.60;99.90;;;;;;5064469;28;20049;-63
2023/02/14 09:00:23;;;;;;;4.13;1.95;;;3.70;99.90;;;;;;5066821;28;20394;-64
2023/02/14 09:02:51;;;;;;;2.85;2.08;;;3.70;99.90;;;;;;5061569;28;20052;-65
2023/02/14 09:05:20;;;;;;;6.03;3.05;;;3.70;99.90;;;;;;5065642;28;20124;-67
2023/02/14 09:07:46;;;;;;;4.90;1.95;;;3.80;99.90;;;;;;5060249;28;20148;-64
2023/02/14 09:10:13;;;;;;;3.70;1.48;;;3.80;99.90;;;;;;5064666;28;20117;-64
2023/02/14 09:12:41;;;;;;;7.13;2.17;;;3.80;99.90;;;;;;5063579;28;20169;-66
2023/02/14 09:15:08;;;;;;;3.15;1.88;;;3.80;99.90;;;;;;5065931;28;20094;-64
2023/02/14 09:17:36;;;;;;;5.97;3.00;;;3.90;99.90;;;;;;5065271;28;20056;-66
2023/02/14 09:20:05;;;;;;;3.88;1.23;;;3.80;99.90;;;;;;5080613;28;20066;-64
2023/02/14 09:22:33;;;;;;;3.45;1.60;;;3.80;99.90;;;;;;5066431;28;20048;-64
2023/02/14 09:25:00;;;;;;;2.78;1.70;;;3.80;99.90;;;;;;5064585;28;20555;-67
2023/02/14 09:27:27;;;;;;;2.95;1.40;;;3.90;99.90;;;;;;5066873;28;20453;-65
2023/02/14 09:29:54;;;;;;;3.40;1.73;;;3.90;99.90;;;;;;5065254;28;20048;-63
2023/02/14 09:32:21;;;;;;;2.75;1.00;;;3.90;99.90;;;;;;5065582;28;20122;-64
2023/02/14 09:40:19;;;;;;;3.67;1.83;;;4.00;99.90;;;;;;5063419;28;20072;-64
2023/02/14 09:43:08;;;;;;;2.70;1.98;;;4.10;99.90;;;;;;5066228;28;20066;-63
2023/02/14 09:45:37;;;;;;;3.03;1.40;;;4.10;99.90;;;;;;5064804;28;20064;-63
2023/02/14 09:48:18;;;;;;;2.55;1.55;;;4.10;99.90;;;;;;5064342;28;20045;-65
2023/02/14 09:50:50;;;;;;;2.63;1.52;;;4.10;99.90;;;;;;5060093;28;20106;-63
2023/02/14 09:53:31;;;;;;;1.42;1.10;;;4.10;99.90;;;;;;5063531;28;20055;-62
2023/02/14 09:56:10;;;;;;;3.15;1.80;;;4.10;99.90;;;;;;5062527;28;20044;-69
2023/02/14 09:59:04;;;;;;;5.07;1.95;;;4.10;99.90;;;;;;5065399;28;20044;-68
2023/02/14 10:01:39;;;;;;;3.45;1.55;;;4.10;99.90;;;;;;5064080;28;20048;-64
2023/02/14 10:04:24;;;;;;;4.40;1.67;;;4.20;99.90;;;;;;5061899;28;20056;-63
2023/02/14 10:07:08;;;;;;;2.83;1.55;;;4.20;99.90;;;;;;5061641;28;20129;-63
2023/02/14 10:10:01;;;;;;;2.72;1.30;;;4.30;99.90;;;;;;5063739;28;20059;-68
2023/02/14 10:12:38;;;;;;;1.42;1.30;;;4.20;99.90;;;;;;5061961;28;20137;-62
2023/02/14 10:15:25;;;;;;;3.45;1.60;;;4.20;99.90;;;;;;5063018;28;20049;-63
2023/02/14 10:17:59;;;;;;;4.20;1.40;;;4.20;99.90;;;;;;5066042;28;20051;-63
2023/02/14 10:20:34;;;;;;;2.17;1.55;;;4.20;99.90;;;;;;5063441;28;20055;-65
2023/02/14 10:23:01;;;;;;;2.00;1.42;;;4.20;99.90;;;;;;5063197;28;20040;-64
2023/02/14 10:25:36;;;;;;;3.50;1.15;;;4.30;99.90;;;;;;5065998;28;20098;-66
2023/02/14 10:28:03;;;;;;;2.05;1.70;;;4.30;99.90;;;;;;5061822;28;20074;-65
2023/02/14 10:30:38;;;;;;;3.20;1.67;;;4.30;99.90;;;;;;5065461;28;20872;-64
2023/02/14 10:33:34;;;;;;;2.00;1.80;;;4.30;99.90;;;;;;5064225;28;20044;-67
2023/02/14 10:36:16;;;;;;;4.18;1.40;;;4.40;99.90;;;;;;5060588;28;20075;-65
2023/02/14 10:39:02;;;;;;;7.18;1.92;;;4.40;99.90;;;;;;5061911;28;20051;-63
2023/02/14 10:41:48;;;;;;;1.38;0.98;;;4.40;99.90;;;;;;5064073;28;20079;-63
2023/02/14 10:44:47;;;;;;;2.30;1.38;;;4.50;99.90;;;;;;5054805;28;20214;-66
2023/02/14 10:47:32;;;;;;;3.03;1.58;;;4.40;99.90;;;;;;5050442;28;20044;-64
2023/02/14 10:50:09;;;;;;;2.35;1.80;;;4.40;99.90;;;;;;5061226;28;20596;-62
2023/02/14 10:53:21;;;;;;;3.60;2.05;;;4.50;99.90;;;;;;5065927;28;20441;-63
2023/02/14 10:55:53;;;;;;;4.60;1.42;;;4.50;99.90;;;;;;5003172;28;20166;-67
2023/02/14 10:58:23;;;;;;;2.17;1.52;;;4.50;99.90;;;;;;5000927;28;20551;-68
2023/02/14 11:01:01;;;;;;;3.75;1.30;;;4.40;99.90;;;;;;5036289;28;20055;-63
2023/02/14 11:03:29;;;;;;;4.15;1.80;;;4.40;99.90;;;;;;5064380;28;20053;-64
2023/02/14 11:05:56;;;;;;;3.28;1.17;;;4.40;99.90;;;;;;5064442;28;20555;-63
2023/02/14 11:08:28;;;;;;;2.13;1.25;;;4.50;99.90;;;;;;5064299;28;20439;-64
2023/02/14 11:11:04;;;;;;;7.68;1.85;;;4.40;99.90;;;;;;5062853;28;20049;-63
2023/02/14 11:13:35;;;;;;;1.95;1.58;;;4.40;99.90;;;;;;5064870;28;20572;-63
2023/02/14 11:16:08;;;;;;;2.63;2.05;;;4.40;99.90;;;;;;5061887;28;20091;-67
2023/02/14 11:18:38;;;;;;;5.00;2.00;;;4.40;99.90;;;;;;5061694;28;20109;-67
2023/02/14 11:21:16;;;;;;;6.03;1.77;;;4.50;99.90;;;;;;5063924;28;20083;-70
2023/02/14 11:23:48;;;;;;;4.00;1.58;;;4.50;99.90;;;;;;5062834;28;20052;-66
2023/02/14 11:26:33;;;;;;;6.28;1.75;;;4.50;99.90;;;;;;5059526;28;20050;-63
2023/02/14 11:29:12;;;;;;;2.35;1.73;;;4.40;99.90;;;;;;5064716;28;20076;-63
2023/02/14 11:31:40;;;;;;;4.60;2.00;;;4.40;99.90;;;;;;5063283;28;20044;-63
2023/02/14 11:34:36;;;;;;;5.97;1.88;;;4.40;99.90;;;;;;5054987;28;20045;-65
2023/02/14 11:37:28;;;;;;;13.90;2.55;;;4.40;99.90;;;;;;5056269;28;20071;-66
2023/02/14 11:39:58;;;;;;;2.80;2.08;;;4.40;99.90;;;;;;5058626;28;20145;-68
2023/02/14 11:42:51;;;;;;;4.20;1.50;;;4.40;99.90;;;;;;5061167;28;20060;-65
2023/02/14 11:45:39;;;;;;;13.30;2.85;;;4.40;99.90;;;;;;5060247;28;20052;-65
2023/02/14 11:48:26;;;;;;;5.15;1.70;;;4.40;99.90;;;;;;5061386;28;20095;-67
2023/02/14 11:51:07;;;;;;;5.50;2.00;;;4.40;99.90;;;;;;5063502;28;20140;-67
2023/02/14 11:53:54;;;;;;;6.60;2.05;;;4.50;99.90;;;;;;5063854;28;20045;-64
2023/02/14 11:56:22;;;;;;;5.03;1.85;;;4.50;99.90;;;;;;5062689;28;20056;-69
2023/02/14 11:59:04;;;;;;;4.20;1.90;;;4.50;99.90;;;;;;5062800;28;20040;-65
2023/02/14 12:01:34;;;;;;;12.38;3.45;;;4.60;99.90;;;;;;5064939;28;20076;-65
2023/02/14 12:04:12;;;;;;;3.20;1.80;;;4.60;99.90;;;;;;5062461;28;20131;-66
2023/02/14 12:06:39;;;;;;;6.03;2.38;;;4.60;99.90;;;;;;5061676;28;20057;-65
2023/02/14 12:09:25;;;;;;;5.53;1.92;;;4.60;99.90;;;;;;5063989;28;20048;-66
2023/02/14 12:12:13;;;;;;;8.65;2.08;;;4.60;99.90;;;;;;5065515;28;20036;-64
2023/02/14 12:14:40;;;;;;;6.88;2.50;;;4.70;99.90;;;;;;5060568;28;20044;-66
2023/02/14 12:17:17;;;;;;;11.35;3.10;;;4.80;99.90;;;;;;5061166;28;20047;-65
2023/02/14 12:19:46;;;;;;;4.43;2.08;;;4.80;99.90;;;;;;5063289;28;20445;-66
2023/02/14 12:22:18;;;;;;;3.80;1.88;;;4.90;99.90;;;;;;5063117;28;20513;-66
2023/02/14 12:24:59;;;;;;;11.00;1.75;;;4.90;99.90;;;;;;5062975;28;20059;-69
2023/02/14 12:27:28;;;;;;;;;;;4.90;99.90;;;;;;5063228;28;20051;-65
2023/02/14 12:30:11;;;;;;;6.60;2.53;;;4.90;99.90;;;;;;5058702;28;19927;-64
2023/02/14 12:32:49;;;;;;;3.88;1.70;;;4.90;99.90;;;;;;5063198;28;20079;-65
2023/02/14 12:35:47;;;;;;;7.88;2.13;;;4.90;99.90;;;;;;5063489;28;20045;-68
2023/02/14 12:38:43;;;;;;;5.77;1.93;;;4.90;99.90;;;;;;5062055;28;20048;-64
2023/02/14 12:41:21;;;;;;;11.95;3.22;;;4.90;99.90;;;;;;5064571;28;20067;-64
2023/02/14 12:44:05;;;;;;;2.65;1.77;;;4.80;99.90;;;;;;5062441;28;20048;-64
2023/02/14 12:47:01;;;;;;;8.20;1.60;;;4.90;99.90;;;;;;5055746;28;20048;-65
2023/02/14 12:50:04;;;;;;;3.95;2.15;;;4.90;99.90;;;;;;5059697;28;20494;-68
2023/02/14 12:53:09;;;;;;;7.90;2.60;;;4.90;99.90;;;;;;5066023;28;20561;-66
2023/02/14 12:55:50;;;;;;;5.45;2.50;;;4.90;99.90;;;;;;5065294;28;20479;-64
2023/02/14 12:58:25;;;;;;;4.50;2.00;;;5.00;99.90;;;;;;5060927;28;20048;-67
2023/02/14 13:01:10;;;;;;;3.05;2.25;;;4.90;99.90;;;;;;5066358;28;20057;-65
2023/02/14 13:03:46;;;;;;;3.55;2.13;;;4.90;99.90;;;;;;5066640;28;20466;-68
2023/02/14 13:06:22;;;;;;;7.35;2.35;;;5.00;99.90;;;;;;5063305;28;20580;-69
2023/02/14 13:09:12;;;;;;;5.78;2.45;;;5.00;99.90;;;;;;5064365;28;20040;-65
2023/02/14 13:11:57;;;;;;;7.55;2.90;;;5.00;99.90;;;;;;5064951;28;20102;-65
2023/02/14 13:14:43;;;;;;;7.40;1.88;;;5.00;99.90;;;;;;5064151;28;20040;-66
2023/02/14 13:17:36;;;;;;;5.35;2.05;;;5.00;99.90;;;;;;5062805;28;20048;-67
2023/02/14 13:20:29;;;;;;;13.80;5.10;;;5.00;99.90;;;;;;5065228;28;20037;-66
2023/02/14 13:23:01;;;;;;;13.63;3.90;;;5.00;99.90;;;;;;5043341;28;20052;-65
2023/02/14 13:25:36;;;;;;;10.38;2.45;;;5.00;99.90;;;;;;5067183;28;20468;-67
2023/02/14 13:28:09;;;;;;;8.05;2.15;;;5.00;99.90;;;;;;5065218;28;20088;-65
2023/02/14 13:30:37;;;;;;;7.20;2.33;;;5.00;99.90;;;;;;5062649;28;20045;-65
2023/02/14 13:33:27;;;;;;;4.20;2.95;;;4.90;99.90;;;;;;5062310;28;20052;-66
2023/02/14 13:35:58;;;;;;;;;;;5.00;99.90;;;;;;5062663;28;20052;-65
2023/02/14 13:38:26;;;;;;;10.15;2.65;;;5.00;99.90;;;;;;5065487;28;20480;-66
2023/02/14 13:40:56;;;;;;;15.27;2.40;;;4.90;99.90;;;;;;5066778;28;20575;-66
2023/02/14 13:44:04;;;;;;;12.82;2.90;;;4.90;99.90;;;;;;5066410;28;20036;-66
2023/02/14 13:46:31;;;;;;;3.78;1.83;;;4.80;99.90;;;;;;5019328;28;20495;-64
2023/02/14 13:49:27;;;;;;;8.48;2.40;;;4.70;99.90;;;;;;5055911;28;20135;-64